sensor_id;sensor_type;location;lat;lon;timestamp;P1;durP1;ratioP1;P2;durP2;ratioP2
58928;SDS011;44713;53.378;10.022;2022-11-20T00:00:50;7.78;;;5.47;;
58928;SDS011;44713;53.378;10.022;2022-11-20T00:03:16;9.70;;;5.40;;
58928;SDS011;44713;53.378;10.022;2022-11-20T00:05:42;9.93;;;5.88;;
58928;SDS011;44713;53.378;10.022;2022-11-20T00:08:07;7.65;;;5.18;;
58928;SDS011;44713;53.378;10.022;2022-11-20T00:10:35;7.65;;;5.18;;
58928;SDS011;44713;53.378;10.022;2022-11-20T00:13:01;9.00;;;5.78;;
58928;SDS011;44713;53.378;10.022;2022-11-20T00:15:26;9.15;;;5.63;;
58928;SDS011;44713;53.378;10.022;2022-11-20T00:17:51;7.63;;;5.57;;
58928;SDS011;44713;53.378;10.022;2022-11-20T00:20:17;12.48;;;6.28;;
58928;SDS011;44713;53.378;10.022;2022-11-20T00:22:42;11.38;;;6.30;;
58928;SDS011;44713;53.378;10.022;2022-11-20T00:25:08;9.75;;;5.72;;
58928;SDS011;44713;53.378;10.022;2022-11-20T00:27:33;9.07;;;6.13;;
58928;SDS011;44713;53.378;10.022;2022-11-20T00:29:59;10.40;;;5.85;;
58928;SDS011;44713;53.378;10.022;2022-11-20T00:32:24;10.55;;;6.47;;
58928;SDS011;44713;53.378;10.022;2022-11-20T00:34:49;8.77;;;6.45;;
58928;SDS011;44713;53.378;10.022;2022-11-20T00:37:15;8.13;;;5.78;;
58928;SDS011;44713;53.378;10.022;2022-11-20T00:39:40;11.48;;;6.72;;
58928;SDS011;44713;53.378;10.022;2022-11-20T00:42:05;10.50;;;5.75;;
58928;SDS011;44713;53.378;10.022;2022-11-20T00:44:31;12.98;;;5.90;;
58928;SDS011;44713;53.378;10.022;2022-11-20T00:46:56;9.02;;;6.03;;
58928;SDS011;44713;53.378;10.022;2022-11-20T00:49:21;10.10;;;5.63;;
58928;SDS011;44713;53.378;10.022;2022-11-20T00:51:47;10.50;;;5.93;;
58928;SDS011;44713;53.378;10.022;2022-11-20T00:54:12;10.18;;;6.28;;
58928;SDS011;44713;53.378;10.022;2022-11-20T00:56:37;10.38;;;5.47;;
58928;SDS011;44713;53.378;10.022;2022-11-20T00:59:03;7.57;;;5.75;;
58928;SDS011;44713;53.378;10.022;2022-11-20T01:01:28;9.25;;;6.60;;
58928;SDS011;44713;53.378;10.022;2022-11-20T01:03:55;8.65;;;5.75;;
58928;SDS011;44713;53.378;10.022;2022-11-20T01:06:26;7.13;;;5.10;;
58928;SDS011;44713;53.378;10.022;2022-11-20T01:08:55;10.60;;;5.47;;
58928;SDS011;44713;53.378;10.022;2022-11-20T01:11:24;9.50;;;5.20;;
58928;SDS011;44713;53.378;10.022;2022-11-20T01:13:55;7.28;;;5.57;;
58928;SDS011;44713;53.378;10.022;2022-11-20T01:16:28;8.32;;;5.78;;
58928;SDS011;44713;53.378;10.022;2022-11-20T01:18:57;6.40;;;5.03;;
58928;SDS011;44713;53.378;10.022;2022-11-20T01:21:27;8.60;;;5.60;;
58928;SDS011;44713;53.378;10.022;2022-11-20T01:23:58;8.48;;;4.85;;
58928;SDS011;44713;53.378;10.022;2022-11-20T01:26:27;7.15;;;4.32;;
58928;SDS011;44713;53.378;10.022;2022-11-20T01:28:55;8.48;;;4.90;;
58928;SDS011;44713;53.378;10.022;2022-11-20T01:31:22;8.82;;;5.65;;
58928;SDS011;44713;53.378;10.022;2022-11-20T01:33:53;10.10;;;5.38;;
58928;SDS011;44713;53.378;10.022;2022-11-20T01:36:20;7.63;;;5.00;;
58928;SDS011;44713;53.378;10.022;2022-11-20T01:38:46;5.53;;;4.43;;
58928;SDS011;44713;53.378;10.022;2022-11-20T01:41:13;8.32;;;5.05;;
58928;SDS011;44713;53.378;10.022;2022-11-20T01:43:59;9.90;;;5.15;;
58928;SDS011;44713;53.378;10.022;2022-11-20T01:46:25;9.02;;;4.93;;
58928;SDS011;44713;53.378;10.022;2022-11-20T01:51:29;8.00;;;5.03;;
58928;SDS011;44713;53.378;10.022;2022-11-20T01:53:56;7.00;;;4.47;;
58928;SDS011;44713;53.378;10.022;2022-11-20T01:56:25;6.97;;;4.57;;
58928;SDS011;44713;53.378;10.022;2022-11-20T01:58:54;6.57;;;5.22;;
58928;SDS011;44713;53.378;10.022;2022-11-20T02:01:23;8.02;;;4.47;;
58928;SDS011;44713;53.378;10.022;2022-11-20T02:03:49;5.07;;;4.15;;
58928;SDS011;44713;53.378;10.022;2022-11-20T02:06:31;8.05;;;4.75;;
58928;SDS011;44713;53.378;10.022;2022-11-20T02:09:05;5.65;;;4.07;;
58928;SDS011;44713;53.378;10.022;2022-11-20T02:11:31;6.47;;;4.57;;
58928;SDS011;44713;53.378;10.022;2022-11-20T02:13:56;7.78;;;4.13;;
58928;SDS011;44713;53.378;10.022;2022-11-20T02:16:27;7.95;;;4.50;;
58928;SDS011;44713;53.378;10.022;2022-11-20T02:18:55;6.35;;;4.90;;
58928;SDS011;44713;53.378;10.022;2022-11-20T02:21:26;6.30;;;5.00;;
58928;SDS011;44713;53.378;10.022;2022-11-20T02:24:13;7.95;;;4.78;;
58928;SDS011;44713;53.378;10.022;2022-11-20T02:26:48;6.68;;;4.72;;
58928;SDS011;44713;53.378;10.022;2022-11-20T02:29:19;6.15;;;4.40;;
58928;SDS011;44713;53.378;10.022;2022-11-20T02:31:50;6.13;;;4.23;;
58928;SDS011;44713;53.378;10.022;2022-11-20T02:34:17;6.72;;;4.75;;
58928;SDS011;44713;53.378;10.022;2022-11-20T02:36:42;8.05;;;4.72;;
58928;SDS011;44713;53.378;10.022;2022-11-20T02:39:08;6.82;;;4.65;;
58928;SDS011;44713;53.378;10.022;2022-11-20T02:41:35;7.78;;;4.47;;
58928;SDS011;44713;53.378;10.022;2022-11-20T02:44:02;6.53;;;4.40;;
58928;SDS011;44713;53.378;10.022;2022-11-20T02:46:29;6.40;;;4.38;;
58928;SDS011;44713;53.378;10.022;2022-11-20T02:48:55;6.03;;;4.55;;
58928;SDS011;44713;53.378;10.022;2022-11-20T02:51:21;6.60;;;4.72;;
58928;SDS011;44713;53.378;10.022;2022-11-20T02:53:46;8.32;;;5.15;;
58928;SDS011;44713;53.378;10.022;2022-11-20T02:56:11;6.75;;;4.32;;
58928;SDS011;44713;53.378;10.022;2022-11-20T02:58:37;7.10;;;4.60;;
58928;SDS011;44713;53.378;10.022;2022-11-20T03:01:02;8.52;;;4.72;;
58928;SDS011;44713;53.378;10.022;2022-11-20T03:03:27;6.63;;;4.85;;
58928;SDS011;44713;53.378;10.022;2022-11-20T03:05:53;6.47;;;4.47;;
58928;SDS011;44713;53.378;10.022;2022-11-20T03:08:18;8.57;;;4.53;;
58928;SDS011;44713;53.378;10.022;2022-11-20T03:10:43;7.28;;;4.68;;
58928;SDS011;44713;53.378;10.022;2022-11-20T03:13:09;6.50;;;4.82;;
58928;SDS011;44713;53.378;10.022;2022-11-20T03:15:35;5.95;;;4.50;;
58928;SDS011;44713;53.378;10.022;2022-11-20T03:18:01;7.93;;;4.47;;
58928;SDS011;44713;53.378;10.022;2022-11-20T03:20:26;5.75;;;4.60;;
58928;SDS011;44713;53.378;10.022;2022-11-20T03:22:53;7.85;;;4.55;;
58928;SDS011;44713;53.378;10.022;2022-11-20T03:25:19;6.63;;;5.15;;
58928;SDS011;44713;53.378;10.022;2022-11-20T03:27:44;7.38;;;4.43;;
58928;SDS011;44713;53.378;10.022;2022-11-20T03:30:10;5.95;;;4.63;;
58928;SDS011;44713;53.378;10.022;2022-11-20T03:32:35;6.78;;;5.15;;
58928;SDS011;44713;53.378;10.022;2022-11-20T03:35:00;8.63;;;5.10;;
58928;SDS011;44713;53.378;10.022;2022-11-20T03:37:26;8.20;;;5.15;;
58928;SDS011;44713;53.378;10.022;2022-11-20T03:39:51;8.00;;;4.95;;
58928;SDS011;44713;53.378;10.022;2022-11-20T03:42:16;7.47;;;4.60;;
58928;SDS011;44713;53.378;10.022;2022-11-20T03:45:00;11.20;;;4.80;;
58928;SDS011;44713;53.378;10.022;2022-11-20T03:47:25;7.72;;;4.82;;
58928;SDS011;44713;53.378;10.022;2022-11-20T03:49:51;6.38;;;5.22;;
58928;SDS011;44713;53.378;10.022;2022-11-20T03:52:16;7.20;;;4.75;;
58928;SDS011;44713;53.378;10.022;2022-11-20T03:54:41;8.43;;;5.20;;
58928;SDS011;44713;53.378;10.022;2022-11-20T03:57:07;5.85;;;4.18;;
58928;SDS011;44713;53.378;10.022;2022-11-20T03:59:32;9.20;;;5.22;;
58928;SDS011;44713;53.378;10.022;2022-11-20T04:01:57;8.77;;;5.07;;
58928;SDS011;44713;53.378;10.022;2022-11-20T04:04:23;5.93;;;4.45;;
58928;SDS011;44713;53.378;10.022;2022-11-20T04:06:48;6.35;;;4.38;;
58928;SDS011;44713;53.378;10.022;2022-11-20T04:09:13;6.70;;;4.70;;
58928;SDS011;44713;53.378;10.022;2022-11-20T04:11:39;8.15;;;4.43;;
58928;SDS011;44713;53.378;10.022;2022-11-20T04:14:05;10.13;;;4.68;;
58928;SDS011;44713;53.378;10.022;2022-11-20T04:16:34;5.93;;;4.45;;
58928;SDS011;44713;53.378;10.022;2022-11-20T04:19:01;6.45;;;4.85;;
58928;SDS011;44713;53.378;10.022;2022-11-20T04:21:28;7.45;;;4.70;;
58928;SDS011;44713;53.378;10.022;2022-11-20T04:23:54;5.35;;;4.22;;
58928;SDS011;44713;53.378;10.022;2022-11-20T04:26:20;5.57;;;4.05;;
58928;SDS011;44713;53.378;10.022;2022-11-20T04:28:47;8.20;;;4.80;;
58928;SDS011;44713;53.378;10.022;2022-11-20T04:31:13;7.82;;;5.30;;
58928;SDS011;44713;53.378;10.022;2022-11-20T04:33:43;6.68;;;4.78;;
58928;SDS011;44713;53.378;10.022;2022-11-20T04:36:16;7.70;;;5.10;;
58928;SDS011;44713;53.378;10.022;2022-11-20T04:38:49;8.50;;;5.38;;
58928;SDS011;44713;53.378;10.022;2022-11-20T04:41:17;8.60;;;5.30;;
58928;SDS011;44713;53.378;10.022;2022-11-20T04:43:50;8.52;;;5.78;;
58928;SDS011;44713;53.378;10.022;2022-11-20T04:46:19;8.10;;;5.35;;
58928;SDS011;44713;53.378;10.022;2022-11-20T04:48:45;7.75;;;5.53;;
58928;SDS011;44713;53.378;10.022;2022-11-20T04:51:11;9.75;;;6.43;;
58928;SDS011;44713;53.378;10.022;2022-11-20T04:53:37;9.85;;;5.43;;
58928;SDS011;44713;53.378;10.022;2022-11-20T04:56:03;10.50;;;5.65;;
58928;SDS011;44713;53.378;10.022;2022-11-20T04:58:33;8.43;;;5.68;;
58928;SDS011;44713;53.378;10.022;2022-11-20T05:01:15;10.52;;;6.05;;
58928;SDS011;44713;53.378;10.022;2022-11-20T05:03:42;7.97;;;5.60;;
58928;SDS011;44713;53.378;10.022;2022-11-20T05:06:09;9.90;;;5.85;;
58928;SDS011;44713;53.378;10.022;2022-11-20T05:08:36;8.68;;;5.63;;
58928;SDS011;44713;53.378;10.022;2022-11-20T05:11:02;7.80;;;5.47;;
58928;SDS011;44713;53.378;10.022;2022-11-20T05:13:29;7.60;;;5.47;;
58928;SDS011;44713;53.378;10.022;2022-11-20T05:15:54;7.13;;;5.28;;
58928;SDS011;44713;53.378;10.022;2022-11-20T05:18:19;8.13;;;5.47;;
58928;SDS011;44713;53.378;10.022;2022-11-20T05:20:45;10.20;;;5.43;;
58928;SDS011;44713;53.378;10.022;2022-11-20T05:23:10;8.55;;;5.80;;
58928;SDS011;44713;53.378;10.022;2022-11-20T05:25:35;7.57;;;5.63;;
58928;SDS011;44713;53.378;10.022;2022-11-20T05:28:01;8.70;;;6.10;;
58928;SDS011;44713;53.378;10.022;2022-11-20T05:30:26;9.38;;;5.20;;
58928;SDS011;44713;53.378;10.022;2022-11-20T05:32:51;10.27;;;5.43;;
58928;SDS011;44713;53.378;10.022;2022-11-20T05:35:17;9.45;;;5.80;;
58928;SDS011;44713;53.378;10.022;2022-11-20T05:37:42;8.30;;;4.85;;
58928;SDS011;44713;53.378;10.022;2022-11-20T05:40:07;7.07;;;5.63;;
58928;SDS011;44713;53.378;10.022;2022-11-20T05:42:33;9.32;;;5.65;;
58928;SDS011;44713;53.378;10.022;2022-11-20T05:45:02;11.73;;;5.80;;
58928;SDS011;44713;53.378;10.022;2022-11-20T05:47:31;9.60;;;6.15;;
58928;SDS011;44713;53.378;10.022;2022-11-20T05:49:57;9.15;;;5.80;;
58928;SDS011;44713;53.378;10.022;2022-11-20T05:52:23;10.07;;;6.22;;
58928;SDS011;44713;53.378;10.022;2022-11-20T05:54:48;10.32;;;6.50;;
58928;SDS011;44713;53.378;10.022;2022-11-20T05:57:14;9.05;;;6.03;;
58928;SDS011;44713;53.378;10.022;2022-11-20T05:59:39;9.48;;;6.60;;
58928;SDS011;44713;53.378;10.022;2022-11-20T06:02:04;7.82;;;6.13;;
58928;SDS011;44713;53.378;10.022;2022-11-20T06:04:30;9.45;;;6.82;;
58928;SDS011;44713;53.378;10.022;2022-11-20T06:06:55;8.45;;;6.50;;
58928;SDS011;44713;53.378;10.022;2022-11-20T06:09:21;9.07;;;6.45;;
58928;SDS011;44713;53.378;10.022;2022-11-20T06:11:46;9.15;;;6.55;;
58928;SDS011;44713;53.378;10.022;2022-11-20T06:14:11;8.40;;;6.15;;
58928;SDS011;44713;53.378;10.022;2022-11-20T06:16:37;8.80;;;6.03;;
58928;SDS011;44713;53.378;10.022;2022-11-20T06:19:02;8.70;;;6.93;;
58928;SDS011;44713;53.378;10.022;2022-11-20T06:21:27;12.55;;;6.95;;
58928;SDS011;44713;53.378;10.022;2022-11-20T06:23:53;8.68;;;6.32;;
58928;SDS011;44713;53.378;10.022;2022-11-20T06:28:46;15.68;;;7.22;;
58928;SDS011;44713;53.378;10.022;2022-11-20T06:31:12;10.45;;;7.15;;
58928;SDS011;44713;53.378;10.022;2022-11-20T06:33:39;12.20;;;7.80;;
58928;SDS011;44713;53.378;10.022;2022-11-20T06:36:05;11.20;;;8.40;;
58928;SDS011;44713;53.378;10.022;2022-11-20T06:38:30;12.70;;;7.55;;
58928;SDS011;44713;53.378;10.022;2022-11-20T06:40:56;9.90;;;7.53;;
58928;SDS011;44713;53.378;10.022;2022-11-20T06:43:22;13.30;;;7.55;;
58928;SDS011;44713;53.378;10.022;2022-11-20T06:45:55;12.07;;;6.82;;
58928;SDS011;44713;53.378;10.022;2022-11-20T06:48:21;9.65;;;6.93;;
58928;SDS011;44713;53.378;10.022;2022-11-20T06:50:48;11.57;;;7.85;;
58928;SDS011;44713;53.378;10.022;2022-11-20T06:53:13;11.13;;;7.85;;
58928;SDS011;44713;53.378;10.022;2022-11-20T06:55:42;12.95;;;8.15;;
58928;SDS011;44713;53.378;10.022;2022-11-20T06:58:09;12.80;;;7.75;;
58928;SDS011;44713;53.378;10.022;2022-11-20T07:00:35;11.95;;;7.75;;
58928;SDS011;44713;53.378;10.022;2022-11-20T07:03:03;14.15;;;8.38;;
58928;SDS011;44713;53.378;10.022;2022-11-20T07:05:29;12.68;;;8.55;;
58928;SDS011;44713;53.378;10.022;2022-11-20T07:07:57;11.43;;;7.78;;
58928;SDS011;44713;53.378;10.022;2022-11-20T07:10:23;11.93;;;8.55;;
58928;SDS011;44713;53.378;10.022;2022-11-20T07:12:49;13.13;;;8.68;;
58928;SDS011;44713;53.378;10.022;2022-11-20T07:15:16;12.30;;;8.55;;
58928;SDS011;44713;53.378;10.022;2022-11-20T07:17:41;12.93;;;8.95;;
58928;SDS011;44713;53.378;10.022;2022-11-20T07:20:07;12.27;;;8.55;;
58928;SDS011;44713;53.378;10.022;2022-11-20T07:22:32;14.07;;;9.98;;
58928;SDS011;44713;53.378;10.022;2022-11-20T07:24:58;14.10;;;8.35;;
58928;SDS011;44713;53.378;10.022;2022-11-20T07:27:23;14.25;;;8.27;;
58928;SDS011;44713;53.378;10.022;2022-11-20T07:29:48;11.43;;;8.63;;
58928;SDS011;44713;53.378;10.022;2022-11-20T07:32:14;15.70;;;9.13;;
58928;SDS011;44713;53.378;10.022;2022-11-20T07:34:39;13.82;;;8.63;;
58928;SDS011;44713;53.378;10.022;2022-11-20T07:37:04;15.80;;;10.00;;
58928;SDS011;44713;53.378;10.022;2022-11-20T07:39:30;15.52;;;11.55;;
58928;SDS011;44713;53.378;10.022;2022-11-20T07:41:55;15.20;;;10.15;;
58928;SDS011;44713;53.378;10.022;2022-11-20T07:44:20;16.52;;;10.05;;
58928;SDS011;44713;53.378;10.022;2022-11-20T07:46:46;14.02;;;9.15;;
58928;SDS011;44713;53.378;10.022;2022-11-20T07:49:11;12.38;;;8.73;;
58928;SDS011;44713;53.378;10.022;2022-11-20T07:51:36;12.20;;;8.45;;
58928;SDS011;44713;53.378;10.022;2022-11-20T07:54:02;14.20;;;8.82;;
58928;SDS011;44713;53.378;10.022;2022-11-20T07:56:27;17.50;;;10.10;;
58928;SDS011;44713;53.378;10.022;2022-11-20T07:58:52;15.27;;;9.52;;
58928;SDS011;44713;53.378;10.022;2022-11-20T08:01:18;12.85;;;8.85;;
58928;SDS011;44713;53.378;10.022;2022-11-20T08:03:43;14.15;;;9.02;;
58928;SDS011;44713;53.378;10.022;2022-11-20T08:06:08;13.93;;;8.60;;
58928;SDS011;44713;53.378;10.022;2022-11-20T08:08:34;12.52;;;8.68;;
58928;SDS011;44713;53.378;10.022;2022-11-20T08:10:59;15.38;;;9.23;;
58928;SDS011;44713;53.378;10.022;2022-11-20T08:13:44;14.38;;;8.52;;
58928;SDS011;44713;53.378;10.022;2022-11-20T08:16:28;13.02;;;8.50;;
58928;SDS011;44713;53.378;10.022;2022-11-20T08:18:54;13.45;;;8.75;;
58928;SDS011;44713;53.378;10.022;2022-11-20T08:21:19;10.35;;;7.65;;
58928;SDS011;44713;53.378;10.022;2022-11-20T08:23:45;12.90;;;8.90;;
58928;SDS011;44713;53.378;10.022;2022-11-20T08:26:10;13.05;;;8.98;;
58928;SDS011;44713;53.378;10.022;2022-11-20T08:28:35;11.52;;;8.57;;
58928;SDS011;44713;53.378;10.022;2022-11-20T08:31:01;12.63;;;8.55;;
58928;SDS011;44713;53.378;10.022;2022-11-20T08:33:28;15.18;;;8.45;;
58928;SDS011;44713;53.378;10.022;2022-11-20T08:35:57;12.77;;;8.27;;
58928;SDS011;44713;53.378;10.022;2022-11-20T08:38:32;14.35;;;8.43;;
58928;SDS011;44713;53.378;10.022;2022-11-20T08:41:01;11.65;;;7.72;;
58928;SDS011;44713;53.378;10.022;2022-11-20T08:43:47;10.48;;;7.97;;
58928;SDS011;44713;53.378;10.022;2022-11-20T08:46:12;12.60;;;8.48;;
58928;SDS011;44713;53.378;10.022;2022-11-20T08:48:38;12.32;;;7.30;;
58928;SDS011;44713;53.378;10.022;2022-11-20T08:51:04;12.25;;;7.25;;
58928;SDS011;44713;53.378;10.022;2022-11-20T08:53:29;11.20;;;6.32;;
58928;SDS011;44713;53.378;10.022;2022-11-20T08:55:56;8.00;;;5.80;;
58928;SDS011;44713;53.378;10.022;2022-11-20T08:58:22;9.02;;;5.82;;
58928;SDS011;44713;53.378;10.022;2022-11-20T09:00:47;5.97;;;5.00;;
58928;SDS011;44713;53.378;10.022;2022-11-20T09:03:13;10.07;;;5.45;;
58928;SDS011;44713;53.378;10.022;2022-11-20T09:05:38;7.75;;;5.63;;
58928;SDS011;44713;53.378;10.022;2022-11-20T09:08:04;8.10;;;5.38;;
58928;SDS011;44713;53.378;10.022;2022-11-20T09:10:29;10.82;;;5.82;;
58928;SDS011;44713;53.378;10.022;2022-11-20T09:12:55;9.45;;;6.35;;
58928;SDS011;44713;53.378;10.022;2022-11-20T09:15:20;7.28;;;5.50;;
58928;SDS011;44713;53.378;10.022;2022-11-20T09:17:55;8.60;;;5.82;;
58928;SDS011;44713;53.378;10.022;2022-11-20T09:20:23;9.25;;;6.72;;
58928;SDS011;44713;53.378;10.022;2022-11-20T09:22:49;8.07;;;6.18;;
58928;SDS011;44713;53.378;10.022;2022-11-20T09:25:14;8.93;;;6.40;;
58928;SDS011;44713;53.378;10.022;2022-11-20T09:27:40;9.02;;;6.25;;
58928;SDS011;44713;53.378;10.022;2022-11-20T09:30:11;11.45;;;7.47;;
58928;SDS011;44713;53.378;10.022;2022-11-20T09:32:41;9.75;;;7.00;;
58928;SDS011;44713;53.378;10.022;2022-11-20T09:35:07;10.90;;;6.55;;
58928;SDS011;44713;53.378;10.022;2022-11-20T09:37:33;8.43;;;6.32;;
58928;SDS011;44713;53.378;10.022;2022-11-20T09:39:58;9.30;;;6.43;;
58928;SDS011;44713;53.378;10.022;2022-11-20T09:42:37;10.10;;;6.75;;
58928;SDS011;44713;53.378;10.022;2022-11-20T09:48:21;6.25;;;5.05;;
58928;SDS011;44713;53.378;10.022;2022-11-20T09:51:04;10.07;;;5.32;;
58928;SDS011;44713;53.378;10.022;2022-11-20T09:56:40;7.00;;;4.97;;
58928;SDS011;44713;53.378;10.022;2022-11-20T09:59:14;8.10;;;5.68;;
58928;SDS011;44713;53.378;10.022;2022-11-20T10:01:48;6.32;;;5.50;;
58928;SDS011;44713;53.378;10.022;2022-11-20T10:04:18;6.93;;;5.50;;
58928;SDS011;44713;53.378;10.022;2022-11-20T10:06:53;8.65;;;5.78;;
58928;SDS011;44713;53.378;10.022;2022-11-20T10:09:29;7.10;;;5.47;;
58928;SDS011;44713;53.378;10.022;2022-11-20T10:12:05;7.53;;;5.50;;
58928;SDS011;44713;53.378;10.022;2022-11-20T10:14:35;8.17;;;5.23;;
58928;SDS011;44713;53.378;10.022;2022-11-20T10:17:25;8.07;;;5.18;;
58928;SDS011;44713;53.378;10.022;2022-11-20T10:23:03;6.32;;;5.28;;
58928;SDS011;44713;53.378;10.022;2022-11-20T10:26:12;6.82;;;5.47;;
58928;SDS011;44713;53.378;10.022;2022-11-20T10:31:38;7.70;;;4.68;;
58928;SDS011;44713;53.378;10.022;2022-11-20T10:34:18;6.82;;;4.88;;
58928;SDS011;44713;53.378;10.022;2022-11-20T10:36:52;6.68;;;5.10;;
58928;SDS011;44713;53.378;10.022;2022-11-20T10:42:11;5.85;;;4.30;;
58928;SDS011;44713;53.378;10.022;2022-11-20T10:44:39;5.38;;;3.97;;
58928;SDS011;44713;53.378;10.022;2022-11-20T10:47:28;5.15;;;4.20;;
58928;SDS011;44713;53.378;10.022;2022-11-20T10:49:56;5.82;;;3.80;;
58928;SDS011;44713;53.378;10.022;2022-11-20T10:52:36;8.35;;;4.10;;
58928;SDS011;44713;53.378;10.022;2022-11-20T10:57:46;5.38;;;4.25;;
58928;SDS011;44713;53.378;10.022;2022-11-20T11:00:20;4.82;;;3.53;;
58928;SDS011;44713;53.378;10.022;2022-11-20T11:02:49;6.10;;;4.43;;
58928;SDS011;44713;53.378;10.022;2022-11-20T11:05:18;8.15;;;4.63;;
58928;SDS011;44713;53.378;10.022;2022-11-20T11:07:51;4.97;;;3.63;;
58928;SDS011;44713;53.378;10.022;2022-11-20T11:11:02;4.18;;;3.53;;
58928;SDS011;44713;53.378;10.022;2022-11-20T11:13:18;3.35;;;2.53;;
58928;SDS011;44713;53.378;10.022;2022-11-20T11:15:44;5.20;;;2.47;;
58928;SDS011;44713;53.378;10.022;2022-11-20T11:18:10;3.08;;;2.53;;
58928;SDS011;44713;53.378;10.022;2022-11-20T11:20:36;3.55;;;2.40;;
58928;SDS011;44713;53.378;10.022;2022-11-20T11:23:02;4.60;;;3.03;;
58928;SDS011;44713;53.378;10.022;2022-11-20T11:25:36;2.97;;;2.45;;
58928;SDS011;44713;53.378;10.022;2022-11-20T11:28:19;2.60;;;2.28;;
58928;SDS011;44713;53.378;10.022;2022-11-20T11:30:46;2.38;;;2.17;;
58928;SDS011;44713;53.378;10.022;2022-11-20T11:33:30;2.97;;;2.60;;
58928;SDS011;44713;53.378;10.022;2022-11-20T11:36:02;3.70;;;2.42;;
58928;SDS011;44713;53.378;10.022;2022-11-20T11:38:36;3.00;;;2.58;;
58928;SDS011;44713;53.378;10.022;2022-11-20T11:43:30;3.30;;;3.00;;
58928;SDS011;44713;53.378;10.022;2022-11-20T11:49:11;4.45;;;2.53;;
58928;SDS011;44713;53.378;10.022;2022-11-20T11:51:45;2.92;;;2.63;;
58928;SDS011;44713;53.378;10.022;2022-11-20T11:57:01;2.92;;;2.42;;
58928;SDS011;44713;53.378;10.022;2022-11-20T11:59:41;3.40;;;2.67;;
58928;SDS011;44713;53.378;10.022;2022-11-20T12:02:34;3.45;;;1.90;;
58928;SDS011;44713;53.378;10.022;2022-11-20T12:05:05;2.17;;;1.90;;
58928;SDS011;44713;53.378;10.022;2022-11-20T12:07:41;3.47;;;2.60;;
58928;SDS011;44713;53.378;10.022;2022-11-20T12:10:13;3.08;;;2.00;;
58928;SDS011;44713;53.378;10.022;2022-11-20T12:12:44;2.92;;;2.30;;
58928;SDS011;44713;53.378;10.022;2022-11-20T12:15:24;2.72;;;2.05;;
58928;SDS011;44713;53.378;10.022;2022-11-20T12:17:55;10.52;;;2.40;;
58928;SDS011;44713;53.378;10.022;2022-11-20T12:20:22;6.70;;;2.40;;
58928;SDS011;44713;53.378;10.022;2022-11-20T12:23:16;3.47;;;2.28;;
58928;SDS011;44713;53.378;10.022;2022-11-20T12:25:48;4.25;;;1.90;;
58928;SDS011;44713;53.378;10.022;2022-11-20T12:28:29;3.00;;;2.35;;
58928;SDS011;44713;53.378;10.022;2022-11-20T12:31:19;2.78;;;2.28;;
58928;SDS011;44713;53.378;10.022;2022-11-20T12:34:16;4.72;;;2.60;;
58928;SDS011;44713;53.378;10.022;2022-11-20T12:37:18;4.07;;;2.20;;
58928;SDS011;44713;53.378;10.022;2022-11-20T12:39:55;3.30;;;2.35;;
58928;SDS011;44713;53.378;10.022;2022-11-20T12:42:29;2.80;;;2.17;;
58928;SDS011;44713;53.378;10.022;2022-11-20T12:57:09;3.55;;;2.60;;
58928;SDS011;44713;53.378;10.022;2022-11-20T12:59:51;3.45;;;2.78;;
58928;SDS011;44713;53.378;10.022;2022-11-20T13:08:21;4.20;;;3.20;;
58928;SDS011;44713;53.378;10.022;2022-11-20T13:11:00;3.80;;;3.00;;
58928;SDS011;44713;53.378;10.022;2022-11-20T13:16:27;4.20;;;3.13;;
58928;SDS011;44713;53.378;10.022;2022-11-20T13:19:13;3.65;;;3.15;;
58928;SDS011;44713;53.378;10.022;2022-11-20T13:21:41;4.30;;;3.50;;
58928;SDS011;44713;53.378;10.022;2022-11-20T13:29:33;5.40;;;3.83;;
58928;SDS011;44713;53.378;10.022;2022-11-20T13:32:15;4.15;;;3.10;;
58928;SDS011;44713;53.378;10.022;2022-11-20T13:34:55;4.20;;;3.00;;
58928;SDS011;44713;53.378;10.022;2022-11-20T13:37:31;3.60;;;3.17;;
58928;SDS011;44713;53.378;10.022;2022-11-20T13:42:33;5.05;;;3.83;;
58928;SDS011;44713;53.378;10.022;2022-11-20T13:45:08;5.63;;;3.60;;
58928;SDS011;44713;53.378;10.022;2022-11-20T13:47:35;5.20;;;2.70;;
58928;SDS011;44713;53.378;10.022;2022-11-20T13:50:02;3.30;;;2.80;;
58928;SDS011;44713;53.378;10.022;2022-11-20T13:52:33;3.00;;;2.70;;
58928;SDS011;44713;53.378;10.022;2022-11-20T13:58:19;5.07;;;2.50;;
58928;SDS011;44713;53.378;10.022;2022-11-20T14:01:00;3.23;;;2.50;;
58928;SDS011;44713;53.378;10.022;2022-11-20T14:03:33;3.97;;;2.60;;
58928;SDS011;44713;53.378;10.022;2022-11-20T14:06:01;2.80;;;2.30;;
58928;SDS011;44713;53.378;10.022;2022-11-20T14:08:32;3.17;;;2.03;;
58928;SDS011;44713;53.378;10.022;2022-11-20T14:11:14;2.17;;;1.95;;
58928;SDS011;44713;53.378;10.022;2022-11-20T14:16:34;2.38;;;2.17;;
58928;SDS011;44713;53.378;10.022;2022-11-20T14:21:45;3.92;;;2.80;;
58928;SDS011;44713;53.378;10.022;2022-11-20T14:24:18;2.33;;;2.10;;
58928;SDS011;44713;53.378;10.022;2022-11-20T14:26:45;4.22;;;2.13;;
58928;SDS011;44713;53.378;10.022;2022-11-20T14:29:21;3.25;;;2.35;;
58928;SDS011;44713;53.378;10.022;2022-11-20T14:31:52;2.70;;;2.50;;
58928;SDS011;44713;53.378;10.022;2022-11-20T14:34:23;2.22;;;1.95;;
58928;SDS011;44713;53.378;10.022;2022-11-20T14:36:56;2.72;;;2.05;;
58928;SDS011;44713;53.378;10.022;2022-11-20T14:39:29;2.28;;;1.85;;
58928;SDS011;44713;53.378;10.022;2022-11-20T14:41:57;2.63;;;1.90;;
58928;SDS011;44713;53.378;10.022;2022-11-20T14:44:30;3.10;;;2.17;;
58928;SDS011;44713;53.378;10.022;2022-11-20T14:46:58;2.47;;;1.90;;
58928;SDS011;44713;53.378;10.022;2022-11-20T14:49:25;2.80;;;2.20;;
58928;SDS011;44713;53.378;10.022;2022-11-20T14:52:00;2.50;;;2.30;;
58928;SDS011;44713;53.378;10.022;2022-11-20T14:54:27;4.03;;;2.13;;
58928;SDS011;44713;53.378;10.022;2022-11-20T14:56:58;2.85;;;2.30;;
58928;SDS011;44713;53.378;10.022;2022-11-20T14:59:27;2.92;;;2.10;;
58928;SDS011;44713;53.378;10.022;2022-11-20T15:01:55;2.88;;;2.38;;
58928;SDS011;44713;53.378;10.022;2022-11-20T15:04:22;3.17;;;2.88;;
58928;SDS011;44713;53.378;10.022;2022-11-20T15:06:53;2.92;;;2.70;;
58928;SDS011;44713;53.378;10.022;2022-11-20T15:09:20;2.90;;;2.60;;
58928;SDS011;44713;53.378;10.022;2022-11-20T15:11:56;3.03;;;2.70;;
58928;SDS011;44713;53.378;10.022;2022-11-20T15:14:24;3.50;;;2.67;;
58928;SDS011;44713;53.378;10.022;2022-11-20T15:16:50;3.28;;;2.75;;
58928;SDS011;44713;53.378;10.022;2022-11-20T15:19:18;3.03;;;2.72;;
58928;SDS011;44713;53.378;10.022;2022-11-20T15:21:46;2.75;;;2.38;;
58928;SDS011;44713;53.378;10.022;2022-11-20T15:24:11;2.63;;;2.42;;
58928;SDS011;44713;53.378;10.022;2022-11-20T15:26:36;2.85;;;2.50;;
58928;SDS011;44713;53.378;10.022;2022-11-20T15:29:05;3.78;;;2.83;;
58928;SDS011;44713;53.378;10.022;2022-11-20T15:31:37;4.35;;;2.72;;
58928;SDS011;44713;53.378;10.022;2022-11-20T15:34:08;3.40;;;2.35;;
58928;SDS011;44713;53.378;10.022;2022-11-20T15:36:38;2.90;;;2.60;;
58928;SDS011;44713;53.378;10.022;2022-11-20T15:39:04;3.05;;;2.50;;
58928;SDS011;44713;53.378;10.022;2022-11-20T15:41:32;3.50;;;2.72;;
58928;SDS011;44713;53.378;10.022;2022-11-20T15:43:58;3.78;;;2.35;;
58928;SDS011;44713;53.378;10.022;2022-11-20T15:46:25;3.42;;;2.67;;
58928;SDS011;44713;53.378;10.022;2022-11-20T15:48:56;3.47;;;2.75;;
58928;SDS011;44713;53.378;10.022;2022-11-20T15:54:01;4.22;;;3.10;;